Weather at Purnea Airport

Public forecast

Using degrees Celsius for public forecast. Weather courtesy of forecast.io.

Closest aviation weather report (METAR) to Purnea Airport

Closest report is Bagdogra Airport, 74.2 nm (137.5 km) NE. Retrieved 2020/09/27 03:30 UTC (42 minutes ago):

VEBD 270330Z 06005KT 6000 SCT020 SCT030 BKN100 26/23 Q1008 TEMPO -RA

Closest aviation forecast (TAF) to Purnea Airport

Forecast is more than 12 hours old.

Closest forecast is Bagdogra Airport, 74.2 nm (137.5 km) NE. Retrieved 2020/09/26 12:30 UTC (16 hours ago):

TAF VEBD 260930Z 2612/2624 VRB02KT 2000 RAB SCT008 SCT015 BKN080 BECMG 2614/2618 2000 TSRABR BKN008 SCT020 BKN080